sensor_id;sensor_type;location;lat;lon;timestamp;temperature;humidity
40808;DHT22;26523;52.504;13.498;2023-03-01T00:01:27;-2.20;99.90
40808;DHT22;26523;52.504;13.498;2023-03-01T00:03:53;-2.20;99.90
40808;DHT22;26523;52.504;13.498;2023-03-01T00:06:20;-2.30;99.90
40808;DHT22;26523;52.504;13.498;2023-03-01T00:08:46;-2.30;99.90
40808;DHT22;26523;52.504;13.498;2023-03-01T00:11:19;-2.30;99.90
40808;DHT22;26523;52.504;13.498;2023-03-01T00:13:48;-2.30;99.90
40808;DHT22;26523;52.504;13.498;2023-03-01T00:16:21;-2.30;99.90
40808;DHT22;26523;52.504;13.498;2023-03-01T00:18:47;-2.40;99.90
40808;DHT22;26523;52.504;13.498;2023-03-01T00:21:12;-2.40;99.90
40808;DHT22;26523;52.504;13.498;2023-03-01T00:23:39;-2.40;99.90
40808;DHT22;26523;52.504;13.498;2023-03-01T00:26:10;-2.50;99.90
40808;DHT22;26523;52.504;13.498;2023-03-01T00:28:36;-2.50;99.90
40808;DHT22;26523;52.504;13.498;2023-03-01T00:31:14;-2.60;99.90
40808;DHT22;26523;52.504;13.498;2023-03-01T00:33:41;-2.50;99.90
40808;DHT22;26523;52.504;13.498;2023-03-01T00:36:08;-2.50;99.90
40808;DHT22;26523;52.504;13.498;2023-03-01T00:38:37;-2.60;99.90
40808;DHT22;26523;52.504;13.498;2023-03-01T00:41:06;-2.50;99.90
40808;DHT22;26523;52.504;13.498;2023-03-01T00:43:32;-2.60;99.90
40808;DHT22;26523;52.504;13.498;2023-03-01T00:46:06;-2.60;99.90
40808;DHT22;26523;52.504;13.498;2023-03-01T00:48:33;-2.70;99.90
40808;DHT22;26523;52.504;13.498;2023-03-01T00:51:08;-2.70;99.90
40808;DHT22;26523;52.504;13.498;2023-03-01T00:53:34;-2.80;99.90
40808;DHT22;26523;52.504;13.498;2023-03-01T00:56:01;-2.80;99.90
40808;DHT22;26523;52.504;13.498;2023-03-01T00:58:26;-2.80;99.90
40808;DHT22;26523;52.504;13.498;2023-03-01T01:00:52;-2.80;99.90
40808;DHT22;26523;52.504;13.498;2023-03-01T01:03:18;-2.80;99.90
40808;DHT22;26523;52.504;13.498;2023-03-01T01:05:44;-2.70;99.90
40808;DHT22;26523;52.504;13.498;2023-03-01T01:08:10;-2.70;99.90
40808;DHT22;26523;52.504;13.498;2023-03-01T01:10:36;-2.80;99.90
40808;DHT22;26523;52.504;13.498;2023-03-01T01:13:02;-2.90;99.90
40808;DHT22;26523;52.504;13.498;2023-03-01T01:15:28;-2.90;99.90
40808;DHT22;26523;52.504;13.498;2023-03-01T01:17:53;-2.90;99.90
40808;DHT22;26523;52.504;13.498;2023-03-01T01:20:20;-2.80;99.90
40808;DHT22;26523;52.504;13.498;2023-03-01T01:22:46;-2.80;99.90
40808;DHT22;26523;52.504;13.498;2023-03-01T01:25:11;-2.80;99.90
40808;DHT22;26523;52.504;13.498;2023-03-01T01:27:37;-2.80;99.90
40808;DHT22;26523;52.504;13.498;2023-03-01T01:30:03;-2.90;99.90
40808;DHT22;26523;52.504;13.498;2023-03-01T01:32:29;-2.90;99.90
40808;DHT22;26523;52.504;13.498;2023-03-01T01:34:55;-3.00;99.90
40808;DHT22;26523;52.504;13.498;2023-03-01T01:37:21;-3.00;99.90
40808;DHT22;26523;52.504;13.498;2023-03-01T01:39:46;-3.00;99.90
40808;DHT22;26523;52.504;13.498;2023-03-01T01:42:17;-2.90;99.90
40808;DHT22;26523;52.504;13.498;2023-03-01T01:44:45;-2.90;99.90
40808;DHT22;26523;52.504;13.498;2023-03-01T01:47:18;-2.90;99.90
40808;DHT22;26523;52.504;13.498;2023-03-01T01:49:56;-2.90;99.90
40808;DHT22;26523;52.504;13.498;2023-03-01T01:52:25;-2.90;99.90
40808;DHT22;26523;52.504;13.498;2023-03-01T01:55:04;-2.90;99.90
40808;DHT22;26523;52.504;13.498;2023-03-01T01:57:37;-2.90;99.90
40808;DHT22;26523;52.504;13.498;2023-03-01T02:00:25;-2.90;99.90
40808;DHT22;26523;52.504;13.498;2023-03-01T02:02:57;-3.00;99.90
40808;DHT22;26523;52.504;13.498;2023-03-01T02:07:54;-3.00;99.90
40808;DHT22;26523;52.504;13.498;2023-03-01T02:10:21;-3.00;99.90
40808;DHT22;26523;52.504;13.498;2023-03-01T02:12:47;-3.00;99.90
40808;DHT22;26523;52.504;13.498;2023-03-01T02:15:13;-3.00;99.90
40808;DHT22;26523;52.504;13.498;2023-03-01T02:17:39;-3.10;99.90
40808;DHT22;26523;52.504;13.498;2023-03-01T02:22:50;-3.10;99.90
40808;DHT22;26523;52.504;13.498;2023-03-01T02:28:08;-3.20;99.90
40808;DHT22;26523;52.504;13.498;2023-03-01T02:30:36;-3.10;99.90
40808;DHT22;26523;52.504;13.498;2023-03-01T02:33:03;-3.20;99.90
40808;DHT22;26523;52.504;13.498;2023-03-01T02:35:32;-3.10;99.90
40808;DHT22;26523;52.504;13.498;2023-03-01T02:38:00;-3.20;99.90
40808;DHT22;26523;52.504;13.498;2023-03-01T02:40:28;-3.20;99.90
40808;DHT22;26523;52.504;13.498;2023-03-01T02:42:57;-3.20;99.90
40808;DHT22;26523;52.504;13.498;2023-03-01T02:45:23;-3.20;99.90
40808;DHT22;26523;52.504;13.498;2023-03-01T02:47:49;-3.20;99.90
40808;DHT22;26523;52.504;13.498;2023-03-01T02:50:42;-3.20;99.90
40808;DHT22;26523;52.504;13.498;2023-03-01T02:53:39;-3.20;99.90
40808;DHT22;26523;52.504;13.498;2023-03-01T02:56:08;-3.20;99.90
40808;DHT22;26523;52.504;13.498;2023-03-01T02:58:41;-3.20;99.90
40808;DHT22;26523;52.504;13.498;2023-03-01T03:01:14;-3.20;99.90
40808;DHT22;26523;52.504;13.498;2023-03-01T03:03:41;-3.30;99.90
40808;DHT22;26523;52.504;13.498;2023-03-01T03:06:07;-3.30;99.90
40808;DHT22;26523;52.504;13.498;2023-03-01T03:08:32;-3.40;99.90
40808;DHT22;26523;52.504;13.498;2023-03-01T03:10:58;-3.40;99.90
40808;DHT22;26523;52.504;13.498;2023-03-01T03:13:24;-3.50;99.90
40808;DHT22;26523;52.504;13.498;2023-03-01T03:15:54;-3.40;99.90
40808;DHT22;26523;52.504;13.498;2023-03-01T03:18:22;-3.50;99.90
40808;DHT22;26523;52.504;13.498;2023-03-01T03:20:48;-3.50;99.90
40808;DHT22;26523;52.504;13.498;2023-03-01T03:23:19;-3.50;99.90
40808;DHT22;26523;52.504;13.498;2023-03-01T03:25:48;-3.40;99.90
40808;DHT22;26523;52.504;13.498;2023-03-01T03:28:14;-3.30;99.90
40808;DHT22;26523;52.504;13.498;2023-03-01T03:30:42;-3.40;99.90
40808;DHT22;26523;52.504;13.498;2023-03-01T03:33:09;-3.40;99.90
40808;DHT22;26523;52.504;13.498;2023-03-01T03:35:41;-3.50;99.90
40808;DHT22;26523;52.504;13.498;2023-03-01T03:38:08;-3.50;99.90
40808;DHT22;26523;52.504;13.498;2023-03-01T03:40:42;-3.60;99.90
40808;DHT22;26523;52.504;13.498;2023-03-01T03:43:19;-3.60;99.90
40808;DHT22;26523;52.504;13.498;2023-03-01T03:45:46;-3.70;99.90
40808;DHT22;26523;52.504;13.498;2023-03-01T03:48:12;-3.70;99.90
40808;DHT22;26523;52.504;13.498;2023-03-01T03:50:39;-3.80;99.90
40808;DHT22;26523;52.504;13.498;2023-03-01T03:53:10;-3.90;99.90
40808;DHT22;26523;52.504;13.498;2023-03-01T03:55:36;-3.80;99.90
40808;DHT22;26523;52.504;13.498;2023-03-01T03:58:06;-3.90;99.90
40808;DHT22;26523;52.504;13.498;2023-03-01T04:00:38;-3.90;99.90
40808;DHT22;26523;52.504;13.498;2023-03-01T04:03:04;-4.00;99.90
40808;DHT22;26523;52.504;13.498;2023-03-01T04:05:30;-4.00;99.90
40808;DHT22;26523;52.504;13.498;2023-03-01T04:07:56;-4.00;99.90
40808;DHT22;26523;52.504;13.498;2023-03-01T04:10:34;-4.00;99.90
40808;DHT22;26523;52.504;13.498;2023-03-01T04:13:01;-4.00;99.90
40808;DHT22;26523;52.504;13.498;2023-03-01T04:15:27;-4.00;99.90
40808;DHT22;26523;52.504;13.498;2023-03-01T04:17:54;-4.00;99.90
40808;DHT22;26523;52.504;13.498;2023-03-01T04:20:22;-3.90;99.90
40808;DHT22;26523;52.504;13.498;2023-03-01T04:22:52;-4.00;99.90
40808;DHT22;26523;52.504;13.498;2023-03-01T04:25:19;-4.00;99.90
40808;DHT22;26523;52.504;13.498;2023-03-01T04:27:44;-3.90;99.90
40808;DHT22;26523;52.504;13.498;2023-03-01T04:30:11;-3.90;99.90
40808;DHT22;26523;52.504;13.498;2023-03-01T04:32:36;-3.90;99.90
40808;DHT22;26523;52.504;13.498;2023-03-01T04:35:02;-4.00;99.90
40808;DHT22;26523;52.504;13.498;2023-03-01T04:37:28;-4.00;99.90
40808;DHT22;26523;52.504;13.498;2023-03-01T04:39:55;-4.10;99.90
40808;DHT22;26523;52.504;13.498;2023-03-01T04:42:20;-4.10;99.90
40808;DHT22;26523;52.504;13.498;2023-03-01T04:44:46;-4.10;99.90
40808;DHT22;26523;52.504;13.498;2023-03-01T04:47:12;-4.20;99.90
40808;DHT22;26523;52.504;13.498;2023-03-01T04:49:38;-4.20;99.90
40808;DHT22;26523;52.504;13.498;2023-03-01T04:52:04;-4.20;99.90
40808;DHT22;26523;52.504;13.498;2023-03-01T04:54:33;-4.20;99.90
40808;DHT22;26523;52.504;13.498;2023-03-01T04:57:00;-4.30;99.90
40808;DHT22;26523;52.504;13.498;2023-03-01T04:59:26;-4.20;99.90
40808;DHT22;26523;52.504;13.498;2023-03-01T05:01:53;-4.20;99.90
40808;DHT22;26523;52.504;13.498;2023-03-01T05:04:24;-4.20;99.90
40808;DHT22;26523;52.504;13.498;2023-03-01T05:06:50;-4.10;99.90
40808;DHT22;26523;52.504;13.498;2023-03-01T05:09:15;-4.10;99.90
40808;DHT22;26523;52.504;13.498;2023-03-01T05:11:41;-4.10;99.90
40808;DHT22;26523;52.504;13.498;2023-03-01T05:14:08;-4.20;99.90
40808;DHT22;26523;52.504;13.498;2023-03-01T05:16:35;-4.10;99.90
40808;DHT22;26523;52.504;13.498;2023-03-01T05:19:02;-4.10;99.90
40808;DHT22;26523;52.504;13.498;2023-03-01T05:21:37;-4.20;99.90
40808;DHT22;26523;52.504;13.498;2023-03-01T05:24:23;-4.10;99.90
40808;DHT22;26523;52.504;13.498;2023-03-01T05:26:49;-4.10;99.90
40808;DHT22;26523;52.504;13.498;2023-03-01T05:29:17;-4.20;99.90
40808;DHT22;26523;52.504;13.498;2023-03-01T05:31:43;-4.20;99.90
40808;DHT22;26523;52.504;13.498;2023-03-01T05:34:09;-4.20;99.90
40808;DHT22;26523;52.504;13.498;2023-03-01T05:36:36;-4.30;99.90
40808;DHT22;26523;52.504;13.498;2023-03-01T05:39:03;-4.30;99.90
40808;DHT22;26523;52.504;13.498;2023-03-01T05:41:29;-4.30;99.90
40808;DHT22;26523;52.504;13.498;2023-03-01T05:43:54;-4.30;99.90
40808;DHT22;26523;52.504;13.498;2023-03-01T05:46:20;-4.20;99.90
40808;DHT22;26523;52.504;13.498;2023-03-01T05:48:46;-4.20;99.90
40808;DHT22;26523;52.504;13.498;2023-03-01T05:51:13;-4.20;99.90
40808;DHT22;26523;52.504;13.498;2023-03-01T05:53:39;-4.20;99.90
40808;DHT22;26523;52.504;13.498;2023-03-01T05:56:04;-4.20;99.90
40808;DHT22;26523;52.504;13.498;2023-03-01T05:58:31;-4.20;99.90
40808;DHT22;26523;52.504;13.498;2023-03-01T06:00:57;-4.20;99.90
40808;DHT22;26523;52.504;13.498;2023-03-01T06:03:23;-4.20;99.90
40808;DHT22;26523;52.504;13.498;2023-03-01T06:05:48;-4.20;99.90
40808;DHT22;26523;52.504;13.498;2023-03-01T06:08:14;-4.20;99.90
40808;DHT22;26523;52.504;13.498;2023-03-01T06:10:40;-4.20;99.90
40808;DHT22;26523;52.504;13.498;2023-03-01T06:13:06;-4.10;99.90
40808;DHT22;26523;52.504;13.498;2023-03-01T06:15:31;-4.10;99.90
40808;DHT22;26523;52.504;13.498;2023-03-01T06:17:57;-4.00;99.90
40808;DHT22;26523;52.504;13.498;2023-03-01T06:20:24;-4.00;99.90
40808;DHT22;26523;52.504;13.498;2023-03-01T06:22:50;-3.90;99.90
40808;DHT22;26523;52.504;13.498;2023-03-01T06:25:19;-3.90;99.90
40808;DHT22;26523;52.504;13.498;2023-03-01T06:27:45;-3.80;99.90
40808;DHT22;26523;52.504;13.498;2023-03-01T06:30:14;-3.70;99.90
40808;DHT22;26523;52.504;13.498;2023-03-01T06:32:40;-3.70;99.90
40808;DHT22;26523;52.504;13.498;2023-03-01T06:35:08;-3.60;99.90
40808;DHT22;26523;52.504;13.498;2023-03-01T06:37:33;-3.60;99.90
40808;DHT22;26523;52.504;13.498;2023-03-01T06:40:01;-3.60;99.90
40808;DHT22;26523;52.504;13.498;2023-03-01T06:42:32;-3.60;99.90
40808;DHT22;26523;52.504;13.498;2023-03-01T06:44:58;-3.50;99.90
40808;DHT22;26523;52.504;13.498;2023-03-01T06:47:23;-3.40;99.90
40808;DHT22;26523;52.504;13.498;2023-03-01T06:49:49;-3.30;99.90
40808;DHT22;26523;52.504;13.498;2023-03-01T06:52:15;-3.20;99.90
40808;DHT22;26523;52.504;13.498;2023-03-01T06:54:40;-3.10;99.90
40808;DHT22;26523;52.504;13.498;2023-03-01T06:57:06;-3.10;99.90
40808;DHT22;26523;52.504;13.498;2023-03-01T06:59:32;-2.90;99.90
40808;DHT22;26523;52.504;13.498;2023-03-01T07:01:57;-2.80;99.90
40808;DHT22;26523;52.504;13.498;2023-03-01T07:04:23;-2.70;99.90
40808;DHT22;26523;52.504;13.498;2023-03-01T07:06:48;-2.60;99.90
40808;DHT22;26523;52.504;13.498;2023-03-01T07:09:23;-2.50;99.90
40808;DHT22;26523;52.504;13.498;2023-03-01T07:11:49;-2.40;99.90
40808;DHT22;26523;52.504;13.498;2023-03-01T07:14:15;-2.40;99.90
40808;DHT22;26523;52.504;13.498;2023-03-01T07:16:41;-2.30;99.90
40808;DHT22;26523;52.504;13.498;2023-03-01T07:19:07;-2.30;99.90
40808;DHT22;26523;52.504;13.498;2023-03-01T07:21:32;-2.30;99.90
40808;DHT22;26523;52.504;13.498;2023-03-01T07:23:58;-2.10;99.90
40808;DHT22;26523;52.504;13.498;2023-03-01T07:26:24;-2.00;99.90
40808;DHT22;26523;52.504;13.498;2023-03-01T07:28:49;-1.90;99.90
40808;DHT22;26523;52.504;13.498;2023-03-01T07:31:15;-1.80;99.90
40808;DHT22;26523;52.504;13.498;2023-03-01T07:33:40;-1.80;99.90
40808;DHT22;26523;52.504;13.498;2023-03-01T07:36:07;-1.70;99.90
40808;DHT22;26523;52.504;13.498;2023-03-01T07:38:32;-1.70;99.90
40808;DHT22;26523;52.504;13.498;2023-03-01T07:41:01;-1.50;99.90
40808;DHT22;26523;52.504;13.498;2023-03-01T07:43:28;-1.40;99.90
40808;DHT22;26523;52.504;13.498;2023-03-01T07:45:54;-1.30;99.90
40808;DHT22;26523;52.504;13.498;2023-03-01T07:48:19;-1.00;99.90
40808;DHT22;26523;52.504;13.498;2023-03-01T07:50:45;-0.90;99.90
40808;DHT22;26523;52.504;13.498;2023-03-01T07:53:11;-0.90;99.90
40808;DHT22;26523;52.504;13.498;2023-03-01T07:55:37;-0.80;99.90
40808;DHT22;26523;52.504;13.498;2023-03-01T07:58:03;-0.50;99.90
40808;DHT22;26523;52.504;13.498;2023-03-01T08:00:29;-0.40;99.90
40808;DHT22;26523;52.504;13.498;2023-03-01T08:02:54;-0.40;99.90
40808;DHT22;26523;52.504;13.498;2023-03-01T08:05:20;-0.40;99.90
40808;DHT22;26523;52.504;13.498;2023-03-01T08:07:47;-0.30;99.90
40808;DHT22;26523;52.504;13.498;2023-03-01T08:10:13;-0.20;99.90
40808;DHT22;26523;52.504;13.498;2023-03-01T08:12:39;-0.10;99.90
40808;DHT22;26523;52.504;13.498;2023-03-01T08:15:05;0.10;99.90
40808;DHT22;26523;52.504;13.498;2023-03-01T08:17:30;0.20;99.90
40808;DHT22;26523;52.504;13.498;2023-03-01T08:19:56;0.30;99.90
40808;DHT22;26523;52.504;13.498;2023-03-01T08:22:21;0.60;99.90
40808;DHT22;26523;52.504;13.498;2023-03-01T08:24:47;0.70;99.90
40808;DHT22;26523;52.504;13.498;2023-03-01T08:27:15;0.80;99.90
40808;DHT22;26523;52.504;13.498;2023-03-01T08:29:41;1.10;99.90
40808;DHT22;26523;52.504;13.498;2023-03-01T08:32:06;1.20;99.90
40808;DHT22;26523;52.504;13.498;2023-03-01T08:34:32;1.40;99.90
40808;DHT22;26523;52.504;13.498;2023-03-01T08:36:57;1.40;99.90
40808;DHT22;26523;52.504;13.498;2023-03-01T08:39:23;1.60;99.90
40808;DHT22;26523;52.504;13.498;2023-03-01T08:41:49;1.80;99.90
40808;DHT22;26523;52.504;13.498;2023-03-01T08:44:15;1.90;99.90
40808;DHT22;26523;52.504;13.498;2023-03-01T08:46:42;2.10;99.90
40808;DHT22;26523;52.504;13.498;2023-03-01T08:49:14;2.30;99.90
40808;DHT22;26523;52.504;13.498;2023-03-01T08:51:40;2.90;99.90
40808;DHT22;26523;52.504;13.498;2023-03-01T08:54:12;5.20;99.90
40808;DHT22;26523;52.504;13.498;2023-03-01T08:56:38;8.20;99.60
40808;DHT22;26523;52.504;13.498;2023-03-01T08:59:04;9.20;94.30
40808;DHT22;26523;52.504;13.498;2023-03-01T09:01:30;9.20;94.60
40808;DHT22;26523;52.504;13.498;2023-03-01T09:03:56;9.40;93.50
40808;DHT22;26523;52.504;13.498;2023-03-01T09:06:21;10.10;91.30
40808;DHT22;26523;52.504;13.498;2023-03-01T09:08:48;11.20;89.80
40808;DHT22;26523;52.504;13.498;2023-03-01T09:11:19;12.10;83.60
40808;DHT22;26523;52.504;13.498;2023-03-01T09:13:46;12.50;81.90
40808;DHT22;26523;52.504;13.498;2023-03-01T09:16:13;12.30;81.00
40808;DHT22;26523;52.504;13.498;2023-03-01T09:18:40;12.80;77.30
40808;DHT22;26523;52.504;13.498;2023-03-01T09:21:09;13.80;73.70
40808;DHT22;26523;52.504;13.498;2023-03-01T09:23:40;13.30;72.10
40808;DHT22;26523;52.504;13.498;2023-03-01T09:26:11;12.20;73.80
40808;DHT22;26523;52.504;13.498;2023-03-01T09:28:37;10.90;76.30
40808;DHT22;26523;52.504;13.498;2023-03-01T09:31:03;9.70;78.80
40808;DHT22;26523;52.504;13.498;2023-03-01T09:33:32;8.80;82.10
40808;DHT22;26523;52.504;13.498;2023-03-01T09:36:09;8.20;83.00
40808;DHT22;26523;52.504;13.498;2023-03-01T09:38:35;7.40;85.00
40808;DHT22;26523;52.504;13.498;2023-03-01T09:41:01;6.90;87.50
40808;DHT22;26523;52.504;13.498;2023-03-01T09:43:42;6.80;88.30
40808;DHT22;26523;52.504;13.498;2023-03-01T09:46:11;6.40;88.70
40808;DHT22;26523;52.504;13.498;2023-03-01T09:48:44;6.20;88.30
40808;DHT22;26523;52.504;13.498;2023-03-01T09:51:38;5.70;88.00
40808;DHT22;26523;52.504;13.498;2023-03-01T09:54:04;5.20;89.10
40808;DHT22;26523;52.504;13.498;2023-03-01T09:56:34;5.10;90.60
40808;DHT22;26523;52.504;13.498;2023-03-01T10:04:47;5.40;90.50
40808;DHT22;26523;52.504;13.498;2023-03-01T10:10:13;5.60;90.10
40808;DHT22;26523;52.504;13.498;2023-03-01T10:12:42;5.50;90.10
40808;DHT22;26523;52.504;13.498;2023-03-01T10:15:18;5.40;90.50
40808;DHT22;26523;52.504;13.498;2023-03-01T10:18:00;5.20;90.80
40808;DHT22;26523;52.504;13.498;2023-03-01T10:21:01;5.20;91.30
40808;DHT22;26523;52.504;13.498;2023-03-01T10:23:30;5.40;91.20
40808;DHT22;26523;52.504;13.498;2023-03-01T10:26:11;5.30;91.40
40808;DHT22;26523;52.504;13.498;2023-03-01T10:31:21;5.40;91.00
40808;DHT22;26523;52.504;13.498;2023-03-01T10:33:53;5.40;90.80
40808;DHT22;26523;52.504;13.498;2023-03-01T10:36:21;5.50;90.90
40808;DHT22;26523;52.504;13.498;2023-03-01T10:38:55;5.40;90.80
40808;DHT22;26523;52.504;13.498;2023-03-01T10:41:26;5.50;90.70
40808;DHT22;26523;52.504;13.498;2023-03-01T10:43:58;5.40;90.80
40808;DHT22;26523;52.504;13.498;2023-03-01T10:46:32;5.40;90.70
40808;DHT22;26523;52.504;13.498;2023-03-01T10:49:14;5.30;90.60
40808;DHT22;26523;52.504;13.498;2023-03-01T10:51:42;5.40;90.60
40808;DHT22;26523;52.504;13.498;2023-03-01T10:54:18;5.30;90.70
40808;DHT22;26523;52.504;13.498;2023-03-01T10:57:04;5.30;91.00
40808;DHT22;26523;52.504;13.498;2023-03-01T10:59:33;5.30;91.50
40808;DHT22;26523;52.504;13.498;2023-03-01T11:02:28;5.40;91.90
40808;DHT22;26523;52.504;13.498;2023-03-01T11:05:18;5.50;91.60
40808;DHT22;26523;52.504;13.498;2023-03-01T11:07:55;5.40;90.80
40808;DHT22;26523;52.504;13.498;2023-03-01T11:12:51;5.30;90.40
40808;DHT22;26523;52.504;13.498;2023-03-01T11:15:26;5.20;90.00
40808;DHT22;26523;52.504;13.498;2023-03-01T11:17:53;5.00;89.20
40808;DHT22;26523;52.504;13.498;2023-03-01T11:23:00;5.10;90.20
40808;DHT22;26523;52.504;13.498;2023-03-01T11:25:31;5.10;88.70
40808;DHT22;26523;52.504;13.498;2023-03-01T11:28:00;5.10;88.60
40808;DHT22;26523;52.504;13.498;2023-03-01T11:30:28;5.10;88.50
40808;DHT22;26523;52.504;13.498;2023-03-01T11:35:28;5.30;88.50
40808;DHT22;26523;52.504;13.498;2023-03-01T11:41:08;5.60;87.20
40808;DHT22;26523;52.504;13.498;2023-03-01T11:43:54;5.70;85.30
40808;DHT22;26523;52.504;13.498;2023-03-01T11:54:50;5.60;85.00
40808;DHT22;26523;52.504;13.498;2023-03-01T11:57:27;5.70;85.30
40808;DHT22;26523;52.504;13.498;2023-03-01T12:08:34;5.60;83.30
40808;DHT22;26523;52.504;13.498;2023-03-01T12:16:56;5.60;80.40
40808;DHT22;26523;52.504;13.498;2023-03-01T12:30:48;5.70;82.50
40808;DHT22;26523;52.504;13.498;2023-03-01T12:36:28;5.90;82.40
40808;DHT22;26523;52.504;13.498;2023-03-01T12:50:26;5.90;82.10
40808;DHT22;26523;52.504;13.498;2023-03-01T12:52:57;5.90;81.30
40808;DHT22;26523;52.504;13.498;2023-03-01T12:55:38;5.80;81.30
40808;DHT22;26523;52.504;13.498;2023-03-01T13:06:18;5.80;78.60
40808;DHT22;26523;52.504;13.498;2023-03-01T13:11:26;5.80;76.50
40808;DHT22;26523;52.504;13.498;2023-03-01T13:13:52;5.80;76.30
40808;DHT22;26523;52.504;13.498;2023-03-01T13:16:42;5.80;76.20
40808;DHT22;26523;52.504;13.498;2023-03-01T13:21:43;6.00;77.50
40808;DHT22;26523;52.504;13.498;2023-03-01T13:24:35;6.10;77.20
40808;DHT22;26523;52.504;13.498;2023-03-01T13:32:17;6.10;79.00
40808;DHT22;26523;52.504;13.498;2023-03-01T13:34:46;6.00;77.70
40808;DHT22;26523;52.504;13.498;2023-03-01T13:37:24;6.00;78.70
40808;DHT22;26523;52.504;13.498;2023-03-01T13:39:52;6.00;79.30
40808;DHT22;26523;52.504;13.498;2023-03-01T13:42:38;6.10;78.60
40808;DHT22;26523;52.504;13.498;2023-03-01T13:45:24;6.00;79.50
40808;DHT22;26523;52.504;13.498;2023-03-01T13:47:57;6.00;79.40
40808;DHT22;26523;52.504;13.498;2023-03-01T13:50:26;6.10;78.90
40808;DHT22;26523;52.504;13.498;2023-03-01T13:52:56;6.00;78.60
40808;DHT22;26523;52.504;13.498;2023-03-01T13:55:45;6.00;80.10
40808;DHT22;26523;52.504;13.498;2023-03-01T13:58:33;6.20;80.00
40808;DHT22;26523;52.504;13.498;2023-03-01T14:01:36;6.20;79.80
40808;DHT22;26523;52.504;13.498;2023-03-01T14:04:03;6.20;80.30
40808;DHT22;26523;52.504;13.498;2023-03-01T14:06:31;6.20;80.50
40808;DHT22;26523;52.504;13.498;2023-03-01T14:09:17;6.30;80.70
40808;DHT22;26523;52.504;13.498;2023-03-01T14:19:59;6.40;81.00
40808;DHT22;26523;52.504;13.498;2023-03-01T14:22:32;6.50;80.30
40808;DHT22;26523;52.504;13.498;2023-03-01T14:24:59;6.50;79.10
40808;DHT22;26523;52.504;13.498;2023-03-01T14:27:35;6.50;79.60
40808;DHT22;26523;52.504;13.498;2023-03-01T14:30:13;6.50;79.80
40808;DHT22;26523;52.504;13.498;2023-03-01T14:32:39;6.50;79.50
40808;DHT22;26523;52.504;13.498;2023-03-01T14:35:20;6.60;80.60
40808;DHT22;26523;52.504;13.498;2023-03-01T14:37:47;6.70;80.70
40808;DHT22;26523;52.504;13.498;2023-03-01T14:40:41;6.70;80.30
40808;DHT22;26523;52.504;13.498;2023-03-01T14:43:13;6.70;80.20
40808;DHT22;26523;52.504;13.498;2023-03-01T14:45:47;6.70;80.60
40808;DHT22;26523;52.504;13.498;2023-03-01T14:48:13;6.70;79.70
40808;DHT22;26523;52.504;13.498;2023-03-01T14:50:42;6.80;80.00
40808;DHT22;26523;52.504;13.498;2023-03-01T14:53:18;6.70;79.80
40808;DHT22;26523;52.504;13.498;2023-03-01T14:55:56;6.70;80.30
40808;DHT22;26523;52.504;13.498;2023-03-01T14:58:26;6.70;79.70
40808;DHT22;26523;52.504;13.498;2023-03-01T15:01:00;6.70;80.20
40808;DHT22;26523;52.504;13.498;2023-03-01T15:03:38;6.60;80.20
40808;DHT22;26523;52.504;13.498;2023-03-01T15:06:07;6.60;80.50
40808;DHT22;26523;52.504;13.498;2023-03-01T15:08:34;6.60;81.40
40808;DHT22;26523;52.504;13.498;2023-03-01T15:13:38;6.60;82.80
40808;DHT22;26523;52.504;13.498;2023-03-01T15:18:32;6.50;83.90
40808;DHT22;26523;52.504;13.498;2023-03-01T15:21:29;6.50;84.00
40808;DHT22;26523;52.504;13.498;2023-03-01T15:24:08;6.40;83.70
40808;DHT22;26523;52.504;13.498;2023-03-01T15:29:22;6.30;84.50
40808;DHT22;26523;52.504;13.498;2023-03-01T15:32:33;6.30;84.70
40808;DHT22;26523;52.504;13.498;2023-03-01T15:35:01;6.30;85.00
40808;DHT22;26523;52.504;13.498;2023-03-01T15:37:49;6.30;85.90
40808;DHT22;26523;52.504;13.498;2023-03-01T15:40:23;6.30;85.90
40808;DHT22;26523;52.504;13.498;2023-03-01T15:42:57;6.30;87.00
40808;DHT22;26523;52.504;13.498;2023-03-01T15:45:26;6.20;87.10
40808;DHT22;26523;52.504;13.498;2023-03-01T15:47:57;6.20;87.60
40808;DHT22;26523;52.504;13.498;2023-03-01T15:50:29;6.20;87.90
40808;DHT22;26523;52.504;13.498;2023-03-01T15:52:56;6.10;88.30
40808;DHT22;26523;52.504;13.498;2023-03-01T15:55:28;6.20;88.60
40808;DHT22;26523;52.504;13.498;2023-03-01T15:58:00;6.00;88.50
40808;DHT22;26523;52.504;13.498;2023-03-01T16:00:28;6.00;88.70
40808;DHT22;26523;52.504;13.498;2023-03-01T16:02:54;6.00;88.70
40808;DHT22;26523;52.504;13.498;2023-03-01T16:05:31;6.00;88.50
40808;DHT22;26523;52.504;13.498;2023-03-01T16:07:57;6.00;88.70
40808;DHT22;26523;52.504;13.498;2023-03-01T16:10:24;5.90;89.00
40808;DHT22;26523;52.504;13.498;2023-03-01T16:12:51;5.90;89.30
40808;DHT22;26523;52.504;13.498;2023-03-01T16:15:22;5.80;89.50
40808;DHT22;26523;52.504;13.498;2023-03-01T16:17:49;5.80;89.90
40808;DHT22;26523;52.504;13.498;2023-03-01T16:20:15;5.70;90.00
40808;DHT22;26523;52.504;13.498;2023-03-01T16:22:42;5.70;90.20
40808;DHT22;26523;52.504;13.498;2023-03-01T16:25:10;5.60;90.40
40808;DHT22;26523;52.504;13.498;2023-03-01T16:27:36;5.60;90.60
40808;DHT22;26523;52.504;13.498;2023-03-01T16:30:03;5.60;90.60
40808;DHT22;26523;52.504;13.498;2023-03-01T16:32:29;5.50;90.90
40808;DHT22;26523;52.504;13.498;2023-03-01T16:34:55;5.40;91.00
40808;DHT22;26523;52.504;13.498;2023-03-01T16:37:21;5.40;91.10
40808;DHT22;26523;52.504;13.498;2023-03-01T16:39:47;5.40;91.30
40808;DHT22;26523;52.504;13.498;2023-03-01T16:42:15;5.20;91.50
40808;DHT22;26523;52.504;13.498;2023-03-01T16:44:41;5.30;91.70
40808;DHT22;26523;52.504;13.498;2023-03-01T16:47:07;5.10;91.80
40808;DHT22;26523;52.504;13.498;2023-03-01T16:49:33;5.00;92.00
40808;DHT22;26523;52.504;13.498;2023-03-01T16:51:58;5.00;92.30
40808;DHT22;26523;52.504;13.498;2023-03-01T16:54:24;4.90;92.40
40808;DHT22;26523;52.504;13.498;2023-03-01T16:56:50;4.80;92.70
40808;DHT22;26523;52.504;13.498;2023-03-01T16:59:16;4.80;92.90
40808;DHT22;26523;52.504;13.498;2023-03-01T17:01:43;4.70;93.00
40808;DHT22;26523;52.504;13.498;2023-03-01T17:04:12;4.60;93.30
40808;DHT22;26523;52.504;13.498;2023-03-01T17:06:38;4.50;93.40
40808;DHT22;26523;52.504;13.498;2023-03-01T17:09:03;4.50;93.90
40808;DHT22;26523;52.504;13.498;2023-03-01T17:11:30;4.40;93.90
40808;DHT22;26523;52.504;13.498;2023-03-01T17:13:56;4.30;94.10
40808;DHT22;26523;52.504;13.498;2023-03-01T17:16:22;4.30;94.40
40808;DHT22;26523;52.504;13.498;2023-03-01T17:18:48;4.20;94.70
40808;DHT22;26523;52.504;13.498;2023-03-01T17:21:13;4.10;94.90
40808;DHT22;26523;52.504;13.498;2023-03-01T17:23:41;4.00;95.10
40808;DHT22;26523;52.504;13.498;2023-03-01T17:26:08;4.00;95.30
40808;DHT22;26523;52.504;13.498;2023-03-01T17:28:34;3.90;95.60
40808;DHT22;26523;52.504;13.498;2023-03-01T17:31:01;3.90;95.60